Time;durP1;ratioP1;P1;durP2;ratioP2;P2;SDS_P1;SDS_P2;PMS_P1;PMS_P2;Temp;Humidity;BMP_temperature;BMP_pressure;BME280_temperature;BME280_humidity;BME280_pressure;Samples;Min_cycle;Max_cycle;Signal;HPM_P1;HPM_P2
2024/01/23 00:00:49;;;;;;;11.48;1.42;;;;;;;6.86;87.98;101601.44;4954258;28;20030;-92
2024/01/23 00:03:15;;;;;;;8.10;1.60;;;;;;;6.86;88.23;101604.03;4966817;28;20034;-93
2024/01/23 00:05:41;;;;;;;9.40;1.52;;;;;;;6.83;88.06;101603.16;4949148;28;20066;-94
2024/01/23 00:08:13;;;;;;;7.20;1.27;;;;;;;6.82;87.99;101601.44;4970415;28;20035;-94
2024/01/23 00:10:39;;;;;;;11.57;1.50;;;;;;;6.80;88.41;101613.50;4966751;28;20028;-94
2024/01/23 00:13:10;;;;;;;7.18;1.30;;;;;;;6.81;87.70;101614.38;4950066;28;20550;-93
2024/01/23 00:15:36;;;;;;;9.45;1.42;;;;;;;6.79;87.64;101622.13;4969155;28;20106;-93
2024/01/23 00:18:02;;;;;;;8.90;1.65;;;;;;;6.79;87.98;101614.38;4954249;28;20022;-93
2024/01/23 00:20:27;;;;;;;6.97;1.25;;;;;;;6.79;88.19;101622.13;4972084;28;20539;-93
2024/01/23 00:22:52;;;;;;;8.73;1.40;;;;;;;6.80;88.13;101641.09;4972552;28;20635;-92
2024/01/23 00:25:18;;;;;;;8.00;1.40;;;;;;;6.79;88.10;101640.22;4958321;28;20027;-94
2024/01/23 00:27:46;;;;;;;7.93;1.33;;;;;;;6.82;87.80;101639.38;4976042;28;20038;-93
2024/01/23 00:30:12;;;;;;;9.93;1.40;;;;;;;6.80;87.76;101644.53;4958366;28;20233;-95
2024/01/23 00:32:38;;;;;;;6.78;1.25;;;;;;;6.84;87.91;101648.00;4951068;28;20474;-92
2024/01/23 00:35:03;;;;;;;7.38;1.13;;;;;;;6.86;87.76;101664.38;4968105;28;20042;-95
2024/01/23 00:37:31;;;;;;;6.70;1.50;;;;;;;6.83;87.32;101665.22;4953611;28;20058;-96
2024/01/23 00:39:59;;;;;;;7.07;1.30;;;;;;;6.83;86.96;101675.56;4970632;28;20102;-95
2024/01/23 00:42:25;;;;;;;11.32;1.60;;;;;;;6.86;87.53;101656.63;4953006;28;20046;-95
2024/01/23 00:44:51;;;;;;;13.60;1.70;;;;;;;6.82;87.18;101671.28;4950276;28;20477;-93
2024/01/23 00:47:16;;;;;;;11.75;1.83;;;;;;;6.82;87.29;101655.78;4954020;28;20034;-92
2024/01/23 00:49:44;;;;;;;9.40;1.88;;;;;;;6.81;87.72;101666.97;4954712;28;20030;-93
2024/01/23 00:52:09;;;;;;;8.00;1.63;;;;;;;6.79;87.07;101679.03;4953575;28;20046;-91
2024/01/23 00:54:34;;;;;;;9.70;1.50;;;;;;;6.78;87.29;101682.47;4951901;28;20031;-91
2024/01/23 00:57:00;;;;;;;6.53;1.25;;;;;;;6.80;86.68;101685.94;4969824;28;20027;-91
2024/01/23 00:59:28;;;;;;;10.07;1.65;;;;;;;6.78;86.70;101708.34;4971103;28;20029;-92
2024/01/23 01:01:54;;;;;;;7.70;1.20;;;;;;;6.80;86.74;101716.09;4968519;28;20026;-94
2024/01/23 01:04:19;;;;;;;8.70;1.60;;;;;;;6.76;86.99;101706.56;4970535;28;20027;-91
2024/01/23 01:06:45;;;;;;;8.07;1.45;;;;;;;6.74;86.97;101722.09;4952139;28;20129;-92
2024/01/23 01:09:10;;;;;;;8.30;1.20;;;;;;;6.73;87.27;101722.09;4968926;28;20038;-92
2024/01/23 01:11:35;;;;;;;10.57;1.42;;;;;;;6.70;87.18;101715.19;4954373;28;20054;-92
2024/01/23 01:14:01;;;;;;;9.15;1.35;;;;;;;6.70;87.12;101729.84;4949002;28;20388;-94
2024/01/23 01:16:29;;;;;;;10.52;1.60;;;;;;;6.64;86.53;101726.38;4952225;28;20130;-91
2024/01/23 01:18:54;;;;;;;9.02;1.55;;;;;;;6.64;86.65;101741.03;4969351;28;20058;-92
2024/01/23 01:21:21;;;;;;;11.43;1.98;;;;;;;6.59;86.74;101729.78;4968383;28;20108;-90
2024/01/23 01:23:49;;;;;;;8.93;1.65;;;;;;;6.55;87.05;101733.19;4945658;28;20200;-92
2024/01/23 01:26:17;;;;;;;10.43;1.27;;;;;;;6.50;87.02;101756.44;4946920;28;20089;-92
2024/01/23 01:28:42;;;;;;;7.40;1.48;;;;;;;6.48;87.33;101751.28;4968019;28;20026;-92
2024/01/23 01:31:08;;;;;;;8.20;1.20;;;;;;;6.47;87.17;101757.31;4951755;28;20019;-91
2024/01/23 01:33:35;;;;;;;7.68;1.60;;;;;;;6.41;87.26;101753.78;4969467;28;20031;-91
2024/01/23 01:36:01;;;;;;;9.63;1.55;;;;;;;6.38;87.08;101770.16;4966889;28;20539;-92
2024/01/23 01:38:26;;;;;;;7.88;1.42;;;;;;;6.32;87.29;101775.31;4952370;28;20018;-92
2024/01/23 01:40:54;;;;;;;8.10;1.67;;;;;;;6.29;87.42;101776.13;4968939;28;20102;-92
2024/01/23 01:43:25;;;;;;;9.27;1.40;;;;;;;6.26;87.71;101785.59;4952887;28;20030;-93
2024/01/23 01:46:08;;;;;;;9.88;1.52;;;;;;;6.18;87.91;101778.63;4949125;28;20034;-94
2024/01/23 01:48:34;;;;;;;8.63;1.58;;;;;;;6.15;87.86;101781.19;4952042;28;20851;-92
2024/01/23 01:50:59;;;;;;;10.98;1.55;;;;;;;6.16;87.82;101785.50;4970944;28;20211;-91
2024/01/23 01:53:25;;;;;;;9.00;1.20;;;;;;;6.12;87.90;101776.03;4968843;28;20031;-89
2024/01/23 01:55:50;;;;;;;8.18;1.50;;;;;;;6.09;88.10;101783.75;4949803;28;20070;-93
2024/01/23 01:58:17;;;;;;;9.35;1.80;;;;;;;6.11;87.74;101791.50;4967842;28;20026;-91
2024/01/23 02:00:43;;;;;;;6.78;1.40;;;;;;;6.07;87.70;101806.09;4966786;28;20462;-91
2024/01/23 02:03:12;;;;;;;11.95;1.63;;;;;;;6.09;87.36;101801.81;4964894;28;20384;-92
2024/01/23 02:05:37;;;;;;;11.48;1.40;;;;;;;6.03;88.08;101809.50;4966626;28;20041;-91
2024/01/23 02:08:03;;;;;;;14.18;1.70;;;;;;;6.01;88.46;101816.38;4948482;28;20023;-93
2024/01/23 02:10:28;;;;;;;11.27;1.60;;;;;;;5.98;88.52;101816.34;4970868;28;20464;-94
2024/01/23 02:12:54;;;;;;;8.95;1.50;;;;;;;5.97;88.57;101836.13;4970756;28;20037;-91
2024/01/23 02:15:20;;;;;;;8.23;1.52;;;;;;;5.92;88.66;101843.84;4963945;28;20055;-92
2024/01/23 02:17:45;;;;;;;8.68;1.38;;;;;;;5.91;89.15;101846.38;4948631;28;20096;-92
2024/01/23 02:20:11;;;;;;;10.15;1.88;;;;;;;5.87;89.20;101845.50;4951259;28;20031;-92
2024/01/23 02:22:36;;;;;;;9.98;1.38;;;;;;;5.85;89.18;101847.19;4962694;28;20219;-93
2024/01/23 02:25:04;;;;;;;6.85;1.15;;;;;;;5.84;89.15;101855.78;4951268;28;20388;-93
2024/01/23 02:27:30;;;;;;;5.78;1.13;;;;;;;5.80;89.64;101848.88;4960621;28;20059;-94
2024/01/23 02:29:55;;;;;;;7.43;1.33;;;;;;;5.81;89.47;101867.81;4962655;28;20035;-92
2024/01/23 02:32:21;;;;;;;9.40;1.27;;;;;;;5.77;89.91;101870.34;4952119;28;20027;-93
2024/01/23 02:34:57;;;;;;;;;;;;;;;;;;;;;
2024/01/23 02:37:25;;;;;;;10.18;1.35;;;;;;;5.79;89.64;101872.97;4956869;28;20041;-93
2024/01/23 02:39:58;;;;;;;7.20;1.48;;;;;;;5.76;90.04;101878.09;4952077;28;20086;-93
2024/01/23 02:42:23;;;;;;;7.65;1.30;;;;;;;5.75;89.74;101868.63;4964250;28;20042;-93
2024/01/23 02:44:49;;;;;;;12.52;1.88;;;;;;;5.75;89.35;101886.69;4963089;28;20049;-93
2024/01/23 02:47:14;;;;;;;9.73;1.75;;;;;;;5.70;89.75;101888.34;4960633;28;20035;-94
2024/01/23 02:49:43;;;;;;;9.88;1.50;;;;;;;5.70;90.10;101893.50;4946017;28;20031;-94
2024/01/23 02:52:08;;;;;;;7.18;1.35;;;;;;;5.70;90.32;101909.00;4943367;28;20034;-93
2024/01/23 02:54:34;;;;;;;8.30;1.60;;;;;;;5.69;90.15;101912.44;4945137;28;20099;-93
2024/01/23 02:57:02;;;;;;;10.07;1.45;;;;;;;5.70;90.24;101925.38;4952487;28;20034;-93
2024/01/23 02:59:36;;;;;;;9.15;1.38;;;;;;;5.71;90.26;101915.91;4946795;28;20034;-93
2024/01/23 03:02:02;;;;;;;9.65;1.48;;;;;;;5.71;90.25;101927.09;4953499;28;20035;-91
2024/01/23 03:04:27;;;;;;;11.40;1.30;;;;;;;5.71;90.02;101941.72;4960450;28;20111;-91
2024/01/23 03:06:53;;;;;;;8.73;1.23;;;;;;;5.67;90.60;101939.94;4963168;28;20380;-93
2024/01/23 03:09:18;;;;;;;7.50;1.38;;;;;;;5.63;90.86;101936.47;4959344;28;20034;-92
2024/01/23 03:11:44;;;;;;;7.97;1.30;;;;;;;5.65;90.80;101950.25;4959381;28;20075;-93
2024/01/23 03:14:12;;;;;;;10.70;1.73;;;;;;;5.62;90.98;101943.34;4949630;28;20070;-94
2024/01/23 03:16:37;;;;;;;10.25;1.52;;;;;;;5.64;90.38;101945.94;4948501;28;20413;-93
2024/01/23 03:19:02;;;;;;;10.93;1.70;;;;;;;5.66;90.82;101953.69;4959061;28;20039;-92
2024/01/23 03:21:28;;;;;;;10.10;1.50;;;;;;;5.62;90.86;101958.84;4945493;28;20035;-91
2024/01/23 03:23:54;;;;;;;6.85;1.30;;;;;;;5.59;91.10;101958.78;4947587;28;20587;-92
2024/01/23 03:26:19;;;;;;;12.27;1.65;;;;;;;5.60;90.87;101962.22;4947198;28;20023;-90
2024/01/23 03:28:44;;;;;;;8.48;1.35;;;;;;;5.59;91.05;101963.97;4945142;28;20027;-92
2024/01/23 03:31:12;;;;;;;9.75;1.42;;;;;;;5.57;91.47;101957.91;4958482;28;20101;-92
2024/01/23 03:33:38;;;;;;;8.02;1.63;;;;;;;5.54;90.95;101950.13;4957231;28;20477;-92
2024/01/23 03:36:03;;;;;;;14.73;1.70;;;;;;;5.52;91.46;101959.56;4958263;28;20034;-92
2024/01/23 03:38:28;;;;;;;7.65;0.93;;;;;;;5.52;91.12;101956.97;4961700;28;20035;-91
2024/01/23 03:40:56;;;;;;;4.43;1.10;;;;;;;5.52;91.56;101980.19;4949832;28;20030;-92
2024/01/23 03:43:23;;;;;;;9.10;1.50;;;;;;;5.49;91.38;101972.41;4949578;28;20057;-91
2024/01/23 03:45:48;;;;;;;10.60;1.60;;;;;;;5.49;91.19;101987.91;4960387;28;20061;-91
2024/01/23 03:48:13;;;;;;;9.98;1.60;;;;;;;5.50;91.26;101994.78;4961082;28;20054;-92
2024/01/23 03:50:39;;;;;;;10.45;1.42;;;;;;;5.46;91.61;101998.19;4941048;28;20050;-90
2024/01/23 03:53:04;;;;;;;12.75;1.80;;;;;;;5.45;91.54;101996.47;4961974;28;20692;-91
2024/01/23 03:55:30;;;;;;;8.55;1.30;;;;;;;5.43;91.96;102013.63;4962559;28;20380;-92
2024/01/23 03:57:55;;;;;;;9.27;1.50;;;;;;;5.42;92.01;102006.75;4951470;28;20062;-92
2024/01/23 04:00:24;;;;;;;10.10;1.45;;;;;;;5.41;91.64;102015.31;4948179;28;20030;-94
2024/01/23 04:02:49;;;;;;;9.32;1.85;;;;;;;5.42;92.24;102027.38;4954265;28;20381;-93
2024/01/23 04:05:15;;;;;;;7.55;1.67;;;;;;;5.39;92.01;102027.34;4959837;28;20043;-92
2024/01/23 04:07:40;;;;;;;10.93;1.85;;;;;;;5.36;92.37;102033.31;4952487;28;20050;-91
2024/01/23 04:10:06;;;;;;;7.22;1.50;;;;;;;5.35;92.10;102030.69;4950395;28;20465;-92
2024/01/23 04:12:32;;;;;;;10.05;1.30;;;;;;;5.32;92.18;102022.06;4947876;28;20031;-92
2024/01/23 04:14:58;;;;;;;8.80;1.70;;;;;;;5.31;92.07;102022.91;4950221;28;20043;-93
2024/01/23 04:17:24;;;;;;;10.70;1.60;;;;;;;5.28;92.40;102022.00;4958035;28;20054;-90
2024/01/23 04:19:49;;;;;;;11.88;1.58;;;;;;;5.28;92.04;102024.59;4956415;28;20476;-92
2024/01/23 04:22:14;;;;;;;8.52;1.65;;;;;;;5.23;92.80;102032.25;4958840;28;20034;-92
2024/01/23 04:24:40;;;;;;;9.38;1.75;;;;;;;5.22;92.49;102039.97;4950822;28;20042;-92
2024/01/23 04:27:06;;;;;;;8.70;1.60;;;;;;;5.20;92.60;102050.25;4952062;28;20038;-91
2024/01/23 04:29:31;;;;;;;12.27;1.60;;;;;;;5.16;92.70;102051.94;4956729;28;20027;-93
2024/01/23 04:31:57;;;;;;;6.88;1.23;;;;;;;5.14;92.52;102058.78;4956581;28;20034;-92
2024/01/23 04:34:22;;;;;;;10.98;1.40;;;;;;;5.12;92.60;102054.44;4950440;28;20031;-92
2024/01/23 04:36:48;;;;;;;8.07;1.58;;;;;;;5.10;92.87;102072.47;4960718;28;20047;-91
2024/01/23 04:39:14;;;;;;;6.47;1.58;;;;;;;5.08;92.54;102074.16;4960079;28;20063;-91
2024/01/23 04:41:40;;;;;;;13.67;1.80;;;;;;;5.07;92.39;102079.28;4978649;28;20650;-92
2024/01/23 04:44:05;;;;;;;8.63;1.67;;;;;;;5.07;92.50;102097.34;4957949;28;20039;-93
2024/01/23 04:46:31;;;;;;;14.27;1.80;;;;;;;5.07;92.49;102092.19;4947898;28;20556;-91
2024/01/23 04:48:56;;;;;;;9.65;1.70;;;;;;;5.08;92.80;102104.25;4963991;28;20034;-92
2024/01/23 04:51:21;;;;;;;9.23;1.70;;;;;;;5.07;92.48;102105.94;4950582;28;20026;-93
2024/01/23 04:53:51;;;;;;;9.75;1.52;;;;;;;5.04;92.77;102108.47;4960523;28;20033;-93
2024/01/23 04:56:17;;;;;;;9.25;1.20;;;;;;;5.04;92.56;102123.94;4949459;28;20086;-92
2024/01/23 04:58:42;;;;;;;9.30;1.60;;;;;;;5.03;92.32;102119.66;4946991;28;20031;-91
2024/01/23 05:01:08;;;;;;;11.38;1.38;;;;;;;5.00;92.86;102117.84;4950301;28;20461;-92
2024/01/23 05:03:33;;;;;;;8.03;1.30;;;;;;;5.00;92.65;102124.75;4961477;28;20041;-93
2024/01/23 05:05:58;;;;;;;6.05;1.58;;;;;;;4.97;93.03;102138.44;4950883;28;20065;-92
2024/01/23 05:08:28;;;;;;;11.85;1.70;;;;;;;4.99;92.45;102141.91;4953251;28;20039;-95
2024/01/23 05:10:54;;;;;;;7.40;1.90;;;;;;;4.98;92.78;102140.16;4962311;28;20115;-93
2024/01/23 05:13:19;;;;;;;11.23;1.77;;;;;;;4.96;92.72;102156.47;4963856;28;20549;-92
2024/01/23 05:15:44;;;;;;;9.48;1.58;;;;;;;4.92;93.07;102149.50;4965216;28;20050;-91
2024/01/23 05:18:10;;;;;;;8.00;1.38;;;;;;;4.91;92.87;102156.38;4957143;28;20030;-92
2024/01/23 05:20:36;;;;;;;9.40;1.70;;;;;;;4.90;92.77;102166.66;4972829;28;20038;-92
2024/01/23 05:23:03;;;;;;;7.85;1.30;;;;;;;4.86;93.52;102171.78;4954599;28;20506;-91
2024/01/23 05:25:28;;;;;;;8.80;1.80;;;;;;;4.85;92.89;102166.56;4952273;28;20026;-92
2024/01/23 05:27:55;;;;;;;10.48;1.52;;;;;;;4.83;93.46;102175.97;4955219;28;20125;-94
2024/01/23 05:30:20;;;;;;;17.83;2.28;;;;;;;4.83;93.26;102182.03;4974067;28;20408;-92
2024/01/23 05:32:46;;;;;;;9.68;1.33;;;;;;;4.83;93.68;102187.19;4972972;28;20138;-92
2024/01/23 05:35:11;;;;;;;12.48;1.65;;;;;;;4.82;93.66;102200.03;4968959;28;20499;-91
2024/01/23 05:37:37;;;;;;;14.00;1.77;;;;;;;4.83;93.59;102201.75;4956354;28;20029;-92
2024/01/23 05:40:08;;;;;;;9.83;1.80;;;;;;;4.82;93.76;102210.34;4956114;28;20019;-92
2024/01/23 05:42:33;;;;;;;10.10;1.92;;;;;;;4.82;93.60;102218.06;4953719;28;20423;-91
2024/01/23 05:44:58;;;;;;;12.55;1.63;;;;;;;4.80;93.67;102218.06;4953061;28;20113;-92
2024/01/23 05:47:24;;;;;;;9.93;1.70;;;;;;;4.78;93.61;102224.88;4954414;28;20424;-93
2024/01/23 05:49:49;;;;;;;10.30;1.20;;;;;;;4.76;93.98;102229.13;4973128;28;20030;-92
2024/01/23 05:52:15;;;;;;;12.60;1.90;;;;;;;4.77;93.55;102237.75;4970452;28;20041;-94
2024/01/23 05:54:41;;;;;;;12.17;1.77;;;;;;;4.74;93.73;102241.13;4954182;28;20046;-93
2024/01/23 05:57:09;;;;;;;12.55;1.55;;;;;;;4.71;93.90;102244.50;4971204;28;20105;-93
2024/01/23 05:59:35;;;;;;;12.50;1.50;;;;;;;4.69;93.79;102238.44;4974212;28;20026;-93
2024/01/23 06:02:00;;;;;;;11.00;1.60;;;;;;;4.68;93.83;102246.16;4971374;28;20389;-94
2024/01/23 06:04:26;;;;;;;10.50;1.93;;;;;;;4.66;94.13;102248.69;4969700;28;20106;-92
2024/01/23 06:06:51;;;;;;;15.13;2.05;;;;;;;4.63;94.45;102252.91;4974156;28;20029;-93
2024/01/23 06:09:19;;;;;;;13.43;2.05;;;;;;;4.61;94.16;102247.72;4951585;28;20038;-94
2024/01/23 06:11:44;;;;;;;10.87;1.80;;;;;;;4.56;94.36;102254.50;4971478;28;20653;-94
2024/01/23 06:14:10;;;;;;;9.70;1.83;;;;;;;4.55;94.53;102245.88;4951747;28;20026;-93
2024/01/23 06:16:37;;;;;;;12.30;1.75;;;;;;;4.56;94.37;102244.19;4968189;28;20097;-92
2024/01/23 06:19:03;;;;;;;12.83;1.97;;;;;;;4.52;94.27;102253.56;4972768;28;20539;-92
2024/01/23 06:21:28;;;;;;;15.27;1.63;;;;;;;4.53;94.47;102264.72;4970597;28;20102;-93
2024/01/23 06:23:54;;;;;;;16.07;1.60;;;;;;;4.51;94.86;102271.56;4967812;28;20583;-93
2024/01/23 06:26:19;;;;;;;11.27;1.60;;;;;;;4.49;94.97;102273.22;4952757;28;20111;-93
2024/01/23 06:28:47;;;;;;;11.23;1.70;;;;;;;4.45;94.99;102272.28;4972243;28;20046;-94
2024/01/23 06:31:13;;;;;;;12.03;2.00;;;;;;;4.47;95.50;102295.50;4953329;28;20109;-94
2024/01/23 06:33:39;;;;;;;7.97;1.50;;;;;;;4.44;95.50;102288.59;4952518;28;20468;-90
2024/01/23 06:36:04;;;;;;;7.83;1.40;;;;;;;4.44;95.59;102295.47;4955405;28;20600;-94
2024/01/23 06:38:30;;;;;;;13.23;1.97;;;;;;;4.42;95.52;102302.28;4969187;28;20152;-94
2024/01/23 06:40:55;;;;;;;10.67;1.60;;;;;;;4.43;95.55;102293.72;4971359;28;20022;-92
2024/01/23 06:43:21;;;;;;;9.73;1.60;;;;;;;4.42;95.63;102297.13;4950816;28;20086;-93
2024/01/23 06:45:46;;;;;;;14.57;2.00;;;;;;;4.40;95.66;102300.53;4953484;28;20349;-92
2024/01/23 06:48:11;;;;;;;11.20;1.50;;;;;;;4.39;96.00;102301.38;4973758;28;20480;-93
2024/01/23 06:50:37;;;;;;;7.47;1.50;;;;;;;4.38;96.05;102302.19;4971281;28;20086;-94
2024/01/23 06:53:03;;;;;;;9.95;1.55;;;;;;;4.42;95.90;102302.28;4970085;28;20039;-93
2024/01/23 06:55:28;;;;;;;8.57;1.53;;;;;;;4.38;95.73;102307.34;4970687;28;20085;-93
2024/01/23 06:57:54;;;;;;;12.87;2.00;;;;;;;4.38;96.13;102320.25;4953430;28;20122;-94
2024/01/23 07:00:20;;;;;;;9.87;1.70;;;;;;;4.38;96.10;102327.97;4971583;28;20022;-94
2024/01/23 07:02:46;;;;;;;8.87;1.60;;;;;;;4.36;96.45;102324.47;4969610;28;20038;-94
2024/01/23 07:05:11;;;;;;;12.00;1.87;;;;;;;4.36;96.73;102326.16;4951750;28;20033;-93
2024/01/23 07:07:39;;;;;;;9.80;1.90;;;;;;;4.37;96.20;102339.09;4971849;28;20114;-92
2024/01/23 07:10:05;;;;;;;11.17;2.10;;;;;;;4.39;96.51;102345.19;4955598;28;20134;-93
2024/01/23 07:12:30;;;;;;;12.17;2.00;;;;;;;4.39;96.31;102337.44;4955784;28;20023;-93
2024/01/23 07:15:07;;;;;;;12.03;2.00;;;;;;;4.38;96.58;102330.53;4942979;29;20043;-92
2024/01/23 07:17:32;;;;;;;8.97;2.00;;;;;;;4.39;96.27;102326.25;4934058;29;20046;-94
2024/01/23 07:20:00;;;;;;;11.35;1.80;;;;;;;4.39;96.43;102329.72;4932526;29;20494;-94
2024/01/23 07:22:32;;;;;;;11.20;2.47;;;;;;;4.36;96.79;102336.47;4943157;28;20035;-92
2024/01/23 07:25:06;;;;;;;;;;;;;;;4.38;96.34;102339.97;4931348;29;20027;-94
2024/01/23 07:27:32;;;;;;;10.97;1.67;;;;;;;4.36;96.86;102333.91;4943081;29;19921;-92
2024/01/23 07:30:06;;;;;;;13.83;2.33;;;;;;;4.31;96.39;102338.94;4933803;29;20019;-95
2024/01/23 07:32:31;;;;;;;11.17;1.80;;;;;;;4.32;97.05;102351.00;4934360;29;20049;-94
2024/01/23 07:34:57;;;;;;;7.83;1.50;;;;;;;4.33;96.57;102357.91;4931060;29;20027;-93
2024/01/23 07:37:22;;;;;;;13.43;2.00;;;;;;;4.33;96.85;102355.31;4927780;29;20484;-92
2024/01/23 07:39:49;;;;;;;8.90;1.93;;;;;;;4.35;96.64;102365.69;4942278;29;20031;-94
2024/01/23 07:42:15;;;;;;;15.60;2.20;;;;;;;4.34;96.83;102372.53;4933412;29;20050;-91
2024/01/23 07:44:45;;;;;;;13.97;1.93;;;;;;;4.36;96.57;102372.56;4929264;29;20065;-93
2024/01/23 07:47:11;;;;;;;11.60;1.70;;;;;;;4.35;96.45;102368.25;4930276;29;20099;-92
2024/01/23 07:49:39;;;;;;;9.20;1.77;;;;;;;4.34;97.00;102374.25;4942674;29;20035;-94
2024/01/23 07:52:05;;;;;;;13.13;1.87;;;;;;;4.34;96.79;102372.53;4943413;29;20106;-92
2024/01/23 07:54:32;;;;;;;8.13;1.38;;;;;;;4.34;96.57;102367.38;4930030;29;20115;-94
2024/01/23 07:56:58;;;;;;;9.93;1.70;;;;;;;4.33;96.95;102378.50;4928401;29;20690;-93
2024/01/23 07:59:23;;;;;;;16.93;2.33;;;;;;;4.34;96.37;102385.41;4933839;29;20110;-94
2024/01/23 08:01:57;;;;;;;12.00;1.90;;;;;;;4.36;96.43;102388.91;4933598;29;20020;-92
2024/01/23 08:04:22;;;;;;;12.23;1.97;;;;;;;4.35;96.81;102394.88;4927343;29;20476;-91
2024/01/23 08:06:48;;;;;;;12.10;1.77;;;;;;;4.34;96.84;102398.28;4933988;29;20062;-93
2024/01/23 08:09:14;;;;;;;10.50;1.73;;;;;;;4.34;96.47;102403.44;4934015;29;20027;-93
2024/01/23 08:11:39;;;;;;;8.43;2.30;;;;;;;4.35;96.50;102410.34;4930683;29;20043;-94
2024/01/23 08:14:04;;;;;;;17.00;1.87;;;;;;;4.37;96.88;102412.94;4931493;29;20055;-94
2024/01/23 08:16:30;;;;;;;11.50;2.03;;;;;;;4.39;95.82;102421.59;4959006;28;20061;-93
2024/01/23 08:18:58;;;;;;;12.87;2.13;;;;;;;4.39;96.18;102425.06;4962873;28;20062;-94
2024/01/23 08:21:23;;;;;;;10.57;2.27;;;;;;;4.38;96.30;102431.03;4952642;28;20019;-91
2024/01/23 08:23:49;;;;;;;13.52;1.80;;;;;;;4.39;96.58;102432.78;4962827;28;20043;-92
2024/01/23 08:26:16;;;;;;;8.60;1.60;;;;;;;4.39;96.10;102443.09;4951979;28;20445;-94
2024/01/23 08:28:42;;;;;;;10.40;2.00;;;;;;;4.42;96.28;102441.44;4962303;28;20023;-93
2024/01/23 08:31:07;;;;;;;13.60;1.97;;;;;;;4.40;96.28;102450.00;4961564;28;20399;-94
2024/01/23 08:33:35;;;;;;;8.17;1.70;;;;;;;4.43;96.00;102453.47;4963442;28;20480;-92
2024/01/23 08:36:12;;;;;;;14.23;2.10;;;;;;;4.41;96.43;102463.72;4947921;28;20046;-93
2024/01/23 08:38:37;;;;;;;11.03;1.80;;;;;;;4.39;96.66;102461.13;4952117;28;20524;-94
2024/01/23 08:41:08;;;;;;;11.07;2.20;;;;;;;4.42;96.49;102469.78;4948179;28;20121;-92
2024/01/23 08:43:37;;;;;;;12.90;1.95;;;;;;;4.40;96.50;102460.31;4961314;28;20026;-93
2024/01/23 08:46:13;;;;;;;10.23;1.87;;;;;;;4.42;96.85;102459.47;4970207;28;20026;-93
2024/01/23 08:48:39;;;;;;;13.27;2.07;;;;;;;4.40;96.82;102468.03;4968714;28;20051;-93
2024/01/23 08:51:06;;;;;;;10.57;2.37;;;;;;;4.45;96.98;102477.56;4954456;28;20471;-94
2024/01/23 08:53:33;;;;;;;10.93;1.80;;;;;;;4.46;97.05;102485.34;4962191;28;20051;-94
2024/01/23 08:56:00;;;;;;;12.00;1.87;;;;;;;4.47;97.22;102481.94;4955383;28;20089;-94
2024/01/23 08:58:26;;;;;;;10.93;2.03;;;;;;;4.48;97.63;102483.69;4960849;28;20023;-94
2024/01/23 09:00:51;;;;;;;13.07;1.75;;;;;;;4.49;97.79;102484.53;4963485;28;20019;-93
2024/01/23 09:03:19;;;;;;;12.50;2.07;;;;;;;4.51;97.37;102486.34;4955337;28;20030;-93
2024/01/23 09:05:47;;;;;;;10.10;2.63;;;;;;;4.56;97.13;102489.91;4960799;28;20035;-94
2024/01/23 09:08:13;;;;;;;8.93;1.70;;;;;;;4.59;97.20;102493.41;4969009;28;20051;-92
2024/01/23 09:10:46;;;;;;;8.17;1.93;;;;;;;4.61;97.47;102500.31;4958446;28;20058;-93
2024/01/23 09:13:11;;;;;;;10.53;1.97;;;;;;;4.65;96.93;102493.56;4954859;28;20035;-93
2024/01/23 09:15:36;;;;;;;13.73;2.33;;;;;;;4.67;97.14;102492.75;4957620;28;20102;-93
2024/01/23 09:18:05;;;;;;;12.37;2.20;;;;;;;4.69;97.29;102487.66;4972097;28;20038;-94
2024/01/23 09:20:30;;;;;;;11.75;2.20;;;;;;;4.71;97.12;102480.81;4974686;28;20030;-93
2024/01/23 09:22:55;;;;;;;15.93;2.60;;;;;;;4.74;97.33;102480.03;4974853;28;20097;-93
2024/01/23 09:25:34;;;;;;;16.20;2.30;;;;;;;4.76;97.03;102479.22;4955799;28;20681;-93
2024/01/23 09:27:59;;;;;;;12.83;1.90;;;;;;;4.80;96.91;102480.16;4974208;28;20043;-92
2024/01/23 09:30:28;;;;;;;12.27;1.98;;;;;;;4.83;96.64;102467.34;4957197;28;20033;-93
2024/01/23 09:33:02;;;;;;;13.83;2.50;;;;;;;4.85;96.85;102474.31;4971584;28;20089;-94
2024/01/23 09:35:29;;;;;;;12.27;2.07;;;;;;;4.88;96.90;102473.50;4955699;28;20031;-93
2024/01/23 09:37:57;;;;;;;13.63;2.23;;;;;;;4.93;96.69;102481.34;4969934;28;20407;-94
2024/01/23 09:40:25;;;;;;;12.90;2.27;;;;;;;4.97;96.89;102490.91;4957900;28;20088;-93
2024/01/23 09:42:54;;;;;;;11.67;1.90;;;;;;;5.01;96.63;102490.16;4953522;28;20026;-93
2024/01/23 09:45:28;;;;;;;13.27;2.77;;;;;;;5.06;96.33;102482.53;4956971;28;20023;-93
2024/01/23 09:47:54;;;;;;;11.63;2.10;;;;;;;5.13;96.24;102494.72;4951177;28;20491;-95
2024/01/23 09:50:24;;;;;;;9.25;2.22;;;;;;;5.16;96.34;102494.78;4954039;28;20027;-94
2024/01/23 09:52:54;;;;;;;10.15;1.83;;;;;;;5.21;95.99;102490.63;4953858;28;20023;-94
2024/01/23 09:55:29;;;;;;;15.67;2.53;;;;;;;5.25;95.94;102486.41;4968227;28;20027;-93
2024/01/23 09:57:54;;;;;;;8.80;2.20;;;;;;;5.32;95.47;102493.44;4946414;28;20166;-92
2024/01/23 10:00:29;;;;;;;11.80;2.00;;;;;;;5.37;95.04;102497.03;4972579;28;20512;-94
2024/01/23 10:02:55;;;;;;;14.93;2.28;;;;;;;5.42;95.10;102497.13;4956426;28;20109;-91
2024/01/23 10:05:22;;;;;;;12.98;2.08;;;;;;;5.42;94.88;102495.41;4969215;28;20038;-92
2024/01/23 10:07:47;;;;;;;11.80;2.20;;;;;;;5.47;94.68;102500.66;4957178;28;20034;-93
2024/01/23 10:10:15;;;;;;;14.60;2.50;;;;;;;5.51;95.21;102499.03;4972285;28;20023;-92
2024/01/23 10:12:44;;;;;;;10.23;1.92;;;;;;;5.54;94.69;102501.69;4956340;28;20031;-93
2024/01/23 10:15:16;;;;;;;10.43;2.67;;;;;;;5.61;94.40;102513.88;4954983;28;20061;-91
2024/01/23 10:17:44;;;;;;;;;;;;;;;5.64;94.74;102513.94;4954586;28;20059;-94
2024/01/23 10:22:48;;;;;;;15.02;2.33;;;;;;;5.66;93.85;102501.94;4992959;23;20519;-94
2024/01/23 10:25:20;;;;;;;15.23;2.10;;;;;;;5.69;93.69;102506.28;4974111;28;20031;-92
2024/01/23 10:28:01;;;;;;;13.65;2.38;;;;;;;5.72;93.44;102496.88;4998503;28;20031;-94
2024/01/23 10:30:29;;;;;;;16.63;2.75;;;;;;;5.78;93.09;102498.75;4987636;28;20026;-93
2024/01/23 10:32:55;;;;;;;15.05;2.50;;;;;;;5.82;93.02;102490.22;4967132;28;20026;-95
2024/01/23 10:35:20;;;;;;;14.75;2.58;;;;;;;5.88;92.60;102497.25;4987298;28;20048;-94
2024/01/23 10:37:46;;;;;;;12.95;2.40;;;;;;;5.97;92.37;102491.38;5001427;28;20097;-93
2024/01/23 10:40:16;;;;;;;14.82;2.47;;;;;;;5.99;92.08;102497.44;4984759;28;20037;-93
2024/01/23 10:42:50;;;;;;;14.48;2.45;;;;;;;6.07;91.87;102504.53;4983229;28;20037;-94
2024/01/23 10:45:17;;;;;;;13.63;2.08;;;;;;;6.15;92.02;102507.25;4982518;28;20045;-94
2024/01/23 10:47:48;;;;;;;12.90;2.30;;;;;;;6.23;91.40;102497.97;4983330;28;20043;-95
2024/01/23 10:50:14;;;;;;;14.00;2.25;;;;;;;6.27;90.60;102498.03;4986511;28;20018;-93
2024/01/23 10:52:40;;;;;;;12.55;2.10;;;;;;;6.31;90.88;102505.00;4975720;28;20061;-93
2024/01/23 10:55:06;;;;;;;11.48;2.20;;;;;;;6.31;91.30;102492.06;4972737;28;20034;-93
2024/01/23 10:57:37;;;;;;;14.32;1.77;;;;;;;6.38;91.44;102489.63;4978873;28;20018;-92
2024/01/23 11:00:04;;;;;;;12.60;2.38;;;;;;;6.41;90.15;102486.22;4986864;28;20077;-93
2024/01/23 11:02:58;;;;;;;11.10;2.03;;;;;;;6.46;89.95;102492.34;4982257;28;20110;-94
2024/01/23 11:05:55;;;;;;;11.77;2.10;;;;;;;6.53;90.16;102478.69;5006598;28;20026;-95
2024/01/23 11:08:39;;;;;;;13.93;2.60;;;;;;;6.63;89.35;102481.44;4987754;28;20034;-92
2024/01/23 11:11:32;;;;;;;12.23;2.50;;;;;;;6.67;88.88;102475.44;4984257;28;20022;-95
2024/01/23 11:14:04;;;;;;;13.90;2.45;;;;;;;6.68;88.83;102475.50;4976283;28;20089;-90
2024/01/23 11:16:33;;;;;;;;;;;;;;;6.73;89.20;102464.38;5011568;28;20418;-92
2024/01/23 11:18:59;;;;;;;14.68;2.08;;;;;;;6.73;88.46;102454.03;5013679;28;20005;-93
2024/01/23 11:21:27;;;;;;;16.92;2.17;;;;;;;6.72;88.06;102442.78;4980164;28;20043;-93
2024/01/23 11:24:00;;;;;;;11.60;1.85;;;;;;;6.73;88.48;102436.78;4974904;28;20034;-91
2024/01/23 11:26:27;;;;;;;13.52;2.10;;;;;;;6.75;87.85;102442.84;4990356;28;20028;-93
2024/01/23 11:28:56;;;;;;;11.45;2.13;;;;;;;6.75;87.54;102436.78;4984360;28;20052;-91
2024/01/23 11:31:26;;;;;;;12.77;2.15;;;;;;;6.77;87.44;102427.31;4999536;28;20036;-91
2024/01/23 11:33:52;;;;;;;13.95;2.95;;;;;;;6.79;88.04;102403.25;4983392;28;20032;-92